sensor_id;sensor_type;location;lat;lon;timestamp;temperature;humidity
23991;DHT22;12205;50.600;4.608;2023-06-22T00:02:25;22.80;99.90
23991;DHT22;12205;50.600;4.608;2023-06-22T00:04:52;22.80;99.90
23991;DHT22;12205;50.600;4.608;2023-06-22T00:07:19;22.70;99.90
23991;DHT22;12205;50.600;4.608;2023-06-22T00:09:48;22.70;99.90
23991;DHT22;12205;50.600;4.608;2023-06-22T00:12:15;22.60;99.90
23991;DHT22;12205;50.600;4.608;2023-06-22T00:14:42;22.60;99.90
23991;DHT22;12205;50.600;4.608;2023-06-22T00:17:09;22.60;99.90
23991;DHT22;12205;50.600;4.608;2023-06-22T00:19:36;22.60;99.90
23991;DHT22;12205;50.600;4.608;2023-06-22T00:22:06;22.60;99.90
23991;DHT22;12205;50.600;4.608;2023-06-22T00:24:33;22.60;99.90
23991;DHT22;12205;50.600;4.608;2023-06-22T00:27:01;22.60;99.90
23991;DHT22;12205;50.600;4.608;2023-06-22T00:29:31;22.60;99.90
23991;DHT22;12205;50.600;4.608;2023-06-22T00:31:58;22.60;99.90
23991;DHT22;12205;50.600;4.608;2023-06-22T00:34:25;22.60;99.90
23991;DHT22;12205;50.600;4.608;2023-06-22T00:36:52;22.60;99.90
23991;DHT22;12205;50.600;4.608;2023-06-22T00:39:19;22.60;99.90
23991;DHT22;12205;50.600;4.608;2023-06-22T00:41:46;22.60;99.90
23991;DHT22;12205;50.600;4.608;2023-06-22T00:44:14;22.60;99.90
23991;DHT22;12205;50.600;4.608;2023-06-22T00:46:42;22.60;99.90
23991;DHT22;12205;50.600;4.608;2023-06-22T00:49:09;22.60;99.90
23991;DHT22;12205;50.600;4.608;2023-06-22T00:51:37;22.60;99.90
23991;DHT22;12205;50.600;4.608;2023-06-22T00:54:11;22.60;99.90
23991;DHT22;12205;50.600;4.608;2023-06-22T00:56:39;22.50;99.90
23991;DHT22;12205;50.600;4.608;2023-06-22T00:59:08;22.50;99.90
23991;DHT22;12205;50.600;4.608;2023-06-22T01:01:39;22.50;99.90
23991;DHT22;12205;50.600;4.608;2023-06-22T01:04:07;22.50;99.90
23991;DHT22;12205;50.600;4.608;2023-06-22T01:06:41;22.50;99.90
23991;DHT22;12205;50.600;4.608;2023-06-22T01:09:15;22.40;99.90
23991;DHT22;12205;50.600;4.608;2023-06-22T01:11:52;22.40;99.90
23991;DHT22;12205;50.600;4.608;2023-06-22T01:14:26;22.40;99.90
23991;DHT22;12205;50.600;4.608;2023-06-22T01:17:00;22.40;99.90
23991;DHT22;12205;50.600;4.608;2023-06-22T01:19:35;22.30;99.90
23991;DHT22;12205;50.600;4.608;2023-06-22T01:22:10;22.30;99.90
23991;DHT22;12205;50.600;4.608;2023-06-22T01:24:48;22.30;99.90
23991;DHT22;12205;50.600;4.608;2023-06-22T01:27:33;22.30;99.90
23991;DHT22;12205;50.600;4.608;2023-06-22T01:30:10;22.20;99.90
23991;DHT22;12205;50.600;4.608;2023-06-22T01:32:39;22.20;99.90
23991;DHT22;12205;50.600;4.608;2023-06-22T01:35:08;22.20;99.90
23991;DHT22;12205;50.600;4.608;2023-06-22T01:37:37;22.20;99.90
23991;DHT22;12205;50.600;4.608;2023-06-22T01:40:06;22.20;99.90
23991;DHT22;12205;50.600;4.608;2023-06-22T01:42:36;22.20;99.90
23991;DHT22;12205;50.600;4.608;2023-06-22T01:45:06;22.20;99.90
23991;DHT22;12205;50.600;4.608;2023-06-22T01:47:37;22.10;99.90
23991;DHT22;12205;50.600;4.608;2023-06-22T01:50:06;22.10;99.90
23991;DHT22;12205;50.600;4.608;2023-06-22T01:52:34;22.10;99.90
23991;DHT22;12205;50.600;4.608;2023-06-22T01:55:01;22.10;99.90
23991;DHT22;12205;50.600;4.608;2023-06-22T01:57:29;22.10;99.90
23991;DHT22;12205;50.600;4.608;2023-06-22T02:00:00;22.10;99.90
23991;DHT22;12205;50.600;4.608;2023-06-22T02:02:47;22.10;99.90
23991;DHT22;12205;50.600;4.608;2023-06-22T02:05:19;22.10;99.90
23991;DHT22;12205;50.600;4.608;2023-06-22T02:07:55;22.10;99.90
23991;DHT22;12205;50.600;4.608;2023-06-22T02:10:31;22.00;99.90
23991;DHT22;12205;50.600;4.608;2023-06-22T02:12:59;22.00;99.90
23991;DHT22;12205;50.600;4.608;2023-06-22T02:15:27;22.00;99.90
23991;DHT22;12205;50.600;4.608;2023-06-22T02:17:56;22.00;99.90
23991;DHT22;12205;50.600;4.608;2023-06-22T02:20:24;22.00;99.90
23991;DHT22;12205;50.600;4.608;2023-06-22T02:22:51;22.00;99.90
23991;DHT22;12205;50.600;4.608;2023-06-22T02:25:18;21.90;99.90
23991;DHT22;12205;50.600;4.608;2023-06-22T02:27:46;21.90;99.90
23991;DHT22;12205;50.600;4.608;2023-06-22T02:30:16;21.90;99.90
23991;DHT22;12205;50.600;4.608;2023-06-22T02:32:43;21.90;99.90
23991;DHT22;12205;50.600;4.608;2023-06-22T02:35:13;21.80;99.90
23991;DHT22;12205;50.600;4.608;2023-06-22T02:37:40;21.80;99.90
23991;DHT22;12205;50.600;4.608;2023-06-22T02:40:09;21.80;99.90
23991;DHT22;12205;50.600;4.608;2023-06-22T02:42:36;21.80;99.90
23991;DHT22;12205;50.600;4.608;2023-06-22T02:45:04;21.70;99.90
23991;DHT22;12205;50.600;4.608;2023-06-22T02:47:31;21.70;99.90
23991;DHT22;12205;50.600;4.608;2023-06-22T02:49:59;21.70;99.90
23991;DHT22;12205;50.600;4.608;2023-06-22T02:52:31;21.70;99.90
23991;DHT22;12205;50.600;4.608;2023-06-22T02:54:59;21.70;99.90
23991;DHT22;12205;50.600;4.608;2023-06-22T02:57:27;21.70;99.90
23991;DHT22;12205;50.600;4.608;2023-06-22T02:59:54;21.70;99.90
23991;DHT22;12205;50.600;4.608;2023-06-22T03:02:22;21.80;99.90
23991;DHT22;12205;50.600;4.608;2023-06-22T03:04:49;21.80;99.90
23991;DHT22;12205;50.600;4.608;2023-06-22T03:07:19;21.80;99.90
23991;DHT22;12205;50.600;4.608;2023-06-22T03:09:49;21.80;99.90
23991;DHT22;12205;50.600;4.608;2023-06-22T03:12:17;21.80;99.90
23991;DHT22;12205;50.600;4.608;2023-06-22T03:14:54;21.80;99.90
23991;DHT22;12205;50.600;4.608;2023-06-22T03:17:21;21.70;99.90
23991;DHT22;12205;50.600;4.608;2023-06-22T03:19:48;21.70;99.90
23991;DHT22;12205;50.600;4.608;2023-06-22T03:22:15;21.80;99.90
23991;DHT22;12205;50.600;4.608;2023-06-22T03:24:43;21.80;99.90
23991;DHT22;12205;50.600;4.608;2023-06-22T03:27:11;21.70;99.90
23991;DHT22;12205;50.600;4.608;2023-06-22T03:29:39;21.80;99.90
23991;DHT22;12205;50.600;4.608;2023-06-22T03:32:07;21.80;99.90
23991;DHT22;12205;50.600;4.608;2023-06-22T03:34:34;21.70;99.90
23991;DHT22;12205;50.600;4.608;2023-06-22T03:37:03;21.70;99.90
23991;DHT22;12205;50.600;4.608;2023-06-22T03:39:31;21.70;99.90
23991;DHT22;12205;50.600;4.608;2023-06-22T03:41:59;21.70;99.90
23991;DHT22;12205;50.600;4.608;2023-06-22T03:44:27;21.70;99.90
23991;DHT22;12205;50.600;4.608;2023-06-22T03:46:54;21.60;99.90
23991;DHT22;12205;50.600;4.608;2023-06-22T03:49:21;21.60;99.90
23991;DHT22;12205;50.600;4.608;2023-06-22T03:51:48;21.60;99.90
23991;DHT22;12205;50.600;4.608;2023-06-22T03:54:15;21.50;99.90
23991;DHT22;12205;50.600;4.608;2023-06-22T03:56:42;21.50;99.90
23991;DHT22;12205;50.600;4.608;2023-06-22T03:59:10;21.50;99.90
23991;DHT22;12205;50.600;4.608;2023-06-22T04:01:38;21.50;99.90
23991;DHT22;12205;50.600;4.608;2023-06-22T04:04:05;21.50;99.90
23991;DHT22;12205;50.600;4.608;2023-06-22T04:06:33;21.50;99.90
23991;DHT22;12205;50.600;4.608;2023-06-22T04:09:00;21.50;99.90
23991;DHT22;12205;50.600;4.608;2023-06-22T04:11:27;21.60;99.90
23991;DHT22;12205;50.600;4.608;2023-06-22T04:13:55;21.60;99.90
23991;DHT22;12205;50.600;4.608;2023-06-22T04:16:22;21.60;99.90
23991;DHT22;12205;50.600;4.608;2023-06-22T04:18:50;21.50;99.90
23991;DHT22;12205;50.600;4.608;2023-06-22T04:21:17;21.60;99.90
23991;DHT22;12205;50.600;4.608;2023-06-22T04:23:45;21.60;99.90
23991;DHT22;12205;50.600;4.608;2023-06-22T04:26:13;21.60;99.90
23991;DHT22;12205;50.600;4.608;2023-06-22T04:28:40;21.60;99.90
23991;DHT22;12205;50.600;4.608;2023-06-22T04:31:07;21.60;99.90
23991;DHT22;12205;50.600;4.608;2023-06-22T04:33:34;21.60;99.90
23991;DHT22;12205;50.600;4.608;2023-06-22T04:36:03;21.60;99.90
23991;DHT22;12205;50.600;4.608;2023-06-22T04:38:30;21.60;99.90
23991;DHT22;12205;50.600;4.608;2023-06-22T04:40:59;21.60;99.90
23991;DHT22;12205;50.600;4.608;2023-06-22T04:43:27;21.60;99.90
23991;DHT22;12205;50.600;4.608;2023-06-22T04:45:56;21.60;99.90
23991;DHT22;12205;50.600;4.608;2023-06-22T04:48:28;21.70;99.90
23991;DHT22;12205;50.600;4.608;2023-06-22T04:50:58;21.60;99.90
23991;DHT22;12205;50.600;4.608;2023-06-22T04:53:30;21.70;99.90
23991;DHT22;12205;50.600;4.608;2023-06-22T04:55:57;21.70;99.90
23991;DHT22;12205;50.600;4.608;2023-06-22T04:58:24;21.70;99.90
23991;DHT22;12205;50.600;4.608;2023-06-22T05:00:52;21.70;99.90
23991;DHT22;12205;50.600;4.608;2023-06-22T05:03:24;21.80;99.90
23991;DHT22;12205;50.600;4.608;2023-06-22T05:05:51;21.70;99.90
23991;DHT22;12205;50.600;4.608;2023-06-22T05:08:19;21.80;99.90
23991;DHT22;12205;50.600;4.608;2023-06-22T05:10:47;21.80;99.90
23991;DHT22;12205;50.600;4.608;2023-06-22T05:13:14;21.90;99.90
23991;DHT22;12205;50.600;4.608;2023-06-22T05:15:41;21.80;99.90
23991;DHT22;12205;50.600;4.608;2023-06-22T05:18:09;21.90;99.90
23991;DHT22;12205;50.600;4.608;2023-06-22T05:20:37;21.90;99.90
23991;DHT22;12205;50.600;4.608;2023-06-22T05:23:04;21.90;99.90
23991;DHT22;12205;50.600;4.608;2023-06-22T05:25:31;22.00;99.90
23991;DHT22;12205;50.600;4.608;2023-06-22T05:28:00;22.00;99.90
23991;DHT22;12205;50.600;4.608;2023-06-22T05:30:31;22.00;99.90
23991;DHT22;12205;50.600;4.608;2023-06-22T05:32:58;22.00;99.90
23991;DHT22;12205;50.600;4.608;2023-06-22T05:35:25;22.10;99.90
23991;DHT22;12205;50.600;4.608;2023-06-22T05:37:52;22.10;99.90
23991;DHT22;12205;50.600;4.608;2023-06-22T05:40:19;22.10;99.90
23991;DHT22;12205;50.600;4.608;2023-06-22T05:42:46;22.10;99.90
23991;DHT22;12205;50.600;4.608;2023-06-22T05:45:15;22.20;99.90
23991;DHT22;12205;50.600;4.608;2023-06-22T05:47:42;22.20;99.90
23991;DHT22;12205;50.600;4.608;2023-06-22T05:50:09;22.30;99.90
23991;DHT22;12205;50.600;4.608;2023-06-22T05:52:36;22.30;99.90
23991;DHT22;12205;50.600;4.608;2023-06-22T05:55:04;22.40;99.90
23991;DHT22;12205;50.600;4.608;2023-06-22T05:57:31;22.40;99.90
23991;DHT22;12205;50.600;4.608;2023-06-22T05:59:58;22.40;99.90
23991;DHT22;12205;50.600;4.608;2023-06-22T06:02:27;22.50;99.90
23991;DHT22;12205;50.600;4.608;2023-06-22T06:04:54;22.50;99.90
23991;DHT22;12205;50.600;4.608;2023-06-22T06:07:21;22.50;99.90
23991;DHT22;12205;50.600;4.608;2023-06-22T06:09:48;22.50;99.90
23991;DHT22;12205;50.600;4.608;2023-06-22T06:12:15;22.60;99.90
23991;DHT22;12205;50.600;4.608;2023-06-22T06:14:43;22.60;99.90
23991;DHT22;12205;50.600;4.608;2023-06-22T06:17:10;22.50;99.90
23991;DHT22;12205;50.600;4.608;2023-06-22T06:19:38;22.60;99.90
23991;DHT22;12205;50.600;4.608;2023-06-22T06:22:05;22.60;99.90
23991;DHT22;12205;50.600;4.608;2023-06-22T06:24:33;22.60;99.90
23991;DHT22;12205;50.600;4.608;2023-06-22T06:27:00;22.60;99.90
23991;DHT22;12205;50.600;4.608;2023-06-22T06:29:30;22.60;99.90
23991;DHT22;12205;50.600;4.608;2023-06-22T06:31:57;22.70;99.90
23991;DHT22;12205;50.600;4.608;2023-06-22T06:34:24;22.80;99.90
23991;DHT22;12205;50.600;4.608;2023-06-22T06:36:53;22.90;99.90
23991;DHT22;12205;50.600;4.608;2023-06-22T06:39:20;22.90;99.90
23991;DHT22;12205;50.600;4.608;2023-06-22T06:41:48;23.00;99.90
23991;DHT22;12205;50.600;4.608;2023-06-22T06:44:15;23.00;99.90
23991;DHT22;12205;50.600;4.608;2023-06-22T06:46:42;23.00;99.90
23991;DHT22;12205;50.600;4.608;2023-06-22T06:49:09;23.10;99.90
23991;DHT22;12205;50.600;4.608;2023-06-22T06:51:36;23.20;99.90
23991;DHT22;12205;50.600;4.608;2023-06-22T06:54:05;23.20;99.90
23991;DHT22;12205;50.600;4.608;2023-06-22T06:56:32;23.20;99.90
23991;DHT22;12205;50.600;4.608;2023-06-22T06:58:59;23.30;99.90
23991;DHT22;12205;50.600;4.608;2023-06-22T07:01:26;23.30;99.90
23991;DHT22;12205;50.600;4.608;2023-06-22T07:03:59;23.30;99.90
23991;DHT22;12205;50.600;4.608;2023-06-22T07:06:26;23.30;99.90
23991;DHT22;12205;50.600;4.608;2023-06-22T07:08:57;23.20;99.90
23991;DHT22;12205;50.600;4.608;2023-06-22T07:11:26;23.30;99.90
23991;DHT22;12205;50.600;4.608;2023-06-22T07:13:53;23.20;99.90
23991;DHT22;12205;50.600;4.608;2023-06-22T07:16:20;23.10;99.90
23991;DHT22;12205;50.600;4.608;2023-06-22T07:18:48;23.10;99.90
23991;DHT22;12205;50.600;4.608;2023-06-22T07:21:15;23.20;99.90
23991;DHT22;12205;50.600;4.608;2023-06-22T07:23:42;23.20;99.90
23991;DHT22;12205;50.600;4.608;2023-06-22T07:26:09;23.30;99.90
23991;DHT22;12205;50.600;4.608;2023-06-22T07:28:39;23.30;99.90
23991;DHT22;12205;50.600;4.608;2023-06-22T07:31:06;23.40;99.90
23991;DHT22;12205;50.600;4.608;2023-06-22T07:33:33;23.40;99.90
23991;DHT22;12205;50.600;4.608;2023-06-22T07:36:01;23.50;99.90
23991;DHT22;12205;50.600;4.608;2023-06-22T07:38:29;23.40;99.90
23991;DHT22;12205;50.600;4.608;2023-06-22T07:40:56;23.50;99.90
23991;DHT22;12205;50.600;4.608;2023-06-22T07:43:23;23.50;99.90
23991;DHT22;12205;50.600;4.608;2023-06-22T07:45:51;23.50;99.90
23991;DHT22;12205;50.600;4.608;2023-06-22T07:48:20;23.50;99.90
23991;DHT22;12205;50.600;4.608;2023-06-22T07:50:48;23.50;99.90
23991;DHT22;12205;50.600;4.608;2023-06-22T07:53:15;23.50;99.90
23991;DHT22;12205;50.600;4.608;2023-06-22T07:55:42;23.50;99.90
23991;DHT22;12205;50.600;4.608;2023-06-22T07:58:09;23.50;99.90
23991;DHT22;12205;50.600;4.608;2023-06-22T08:00:37;23.60;99.90
23991;DHT22;12205;50.600;4.608;2023-06-22T08:03:08;23.60;99.90
23991;DHT22;12205;50.600;4.608;2023-06-22T08:05:35;23.60;99.90
23991;DHT22;12205;50.600;4.608;2023-06-22T08:08:02;23.60;99.90
23991;DHT22;12205;50.600;4.608;2023-06-22T08:10:30;23.70;99.90
23991;DHT22;12205;50.600;4.608;2023-06-22T08:12:57;23.70;99.90
23991;DHT22;12205;50.600;4.608;2023-06-22T08:15:26;23.70;99.90
23991;DHT22;12205;50.600;4.608;2023-06-22T08:17:53;23.70;99.90
23991;DHT22;12205;50.600;4.608;2023-06-22T08:20:22;23.80;99.90
23991;DHT22;12205;50.600;4.608;2023-06-22T08:22:49;23.80;99.90
23991;DHT22;12205;50.600;4.608;2023-06-22T08:25:16;23.80;99.90
23991;DHT22;12205;50.600;4.608;2023-06-22T08:27:45;23.90;99.90
23991;DHT22;12205;50.600;4.608;2023-06-22T08:30:14;23.90;99.90
23991;DHT22;12205;50.600;4.608;2023-06-22T08:32:41;23.90;99.90
23991;DHT22;12205;50.600;4.608;2023-06-22T08:35:09;23.90;99.90
23991;DHT22;12205;50.600;4.608;2023-06-22T08:37:37;24.00;99.90
23991;DHT22;12205;50.600;4.608;2023-06-22T08:40:07;24.00;99.90
23991;DHT22;12205;50.600;4.608;2023-06-22T08:42:35;24.00;99.90
23991;DHT22;12205;50.600;4.608;2023-06-22T08:45:03;24.10;99.90
23991;DHT22;12205;50.600;4.608;2023-06-22T08:47:31;24.10;99.90
23991;DHT22;12205;50.600;4.608;2023-06-22T08:49:58;24.00;99.90
23991;DHT22;12205;50.600;4.608;2023-06-22T08:52:28;24.00;99.90
23991;DHT22;12205;50.600;4.608;2023-06-22T08:54:56;23.90;99.90
23991;DHT22;12205;50.600;4.608;2023-06-22T08:57:24;23.90;99.90
23991;DHT22;12205;50.600;4.608;2023-06-22T08:59:51;23.90;99.90
23991;DHT22;12205;50.600;4.608;2023-06-22T09:02:19;23.80;99.90
23991;DHT22;12205;50.600;4.608;2023-06-22T09:04:46;23.80;99.90
23991;DHT22;12205;50.600;4.608;2023-06-22T09:07:14;23.60;99.90
23991;DHT22;12205;50.600;4.608;2023-06-22T09:09:47;23.50;99.90
23991;DHT22;12205;50.600;4.608;2023-06-22T09:12:16;23.40;99.90
23991;DHT22;12205;50.600;4.608;2023-06-22T09:14:45;23.40;99.90
23991;DHT22;12205;50.600;4.608;2023-06-22T09:17:13;23.30;99.90
23991;DHT22;12205;50.600;4.608;2023-06-22T09:19:40;23.10;99.90
23991;DHT22;12205;50.600;4.608;2023-06-22T09:22:07;23.00;99.90
23991;DHT22;12205;50.600;4.608;2023-06-22T09:24:35;22.90;99.90
23991;DHT22;12205;50.600;4.608;2023-06-22T09:27:02;22.80;99.90
23991;DHT22;12205;50.600;4.608;2023-06-22T09:29:31;22.70;99.90
23991;DHT22;12205;50.600;4.608;2023-06-22T09:31:59;22.60;99.90
23991;DHT22;12205;50.600;4.608;2023-06-22T09:34:26;22.60;99.90
23991;DHT22;12205;50.600;4.608;2023-06-22T09:36:53;22.50;99.90
23991;DHT22;12205;50.600;4.608;2023-06-22T09:39:20;22.50;99.90
23991;DHT22;12205;50.600;4.608;2023-06-22T09:41:47;22.50;99.90
23991;DHT22;12205;50.600;4.608;2023-06-22T09:44:15;22.40;99.90
23991;DHT22;12205;50.600;4.608;2023-06-22T09:46:43;22.40;99.90
23991;DHT22;12205;50.600;4.608;2023-06-22T09:49:10;22.30;99.90
23991;DHT22;12205;50.600;4.608;2023-06-22T09:51:38;22.30;99.90
23991;DHT22;12205;50.600;4.608;2023-06-22T09:54:05;22.30;99.90
23991;DHT22;12205;50.600;4.608;2023-06-22T09:56:32;22.20;99.90
23991;DHT22;12205;50.600;4.608;2023-06-22T09:58:59;22.20;99.90
23991;DHT22;12205;50.600;4.608;2023-06-22T10:01:26;22.10;99.90
23991;DHT22;12205;50.600;4.608;2023-06-22T10:03:55;22.10;99.90
23991;DHT22;12205;50.600;4.608;2023-06-22T10:06:23;22.00;99.90
23991;DHT22;12205;50.600;4.608;2023-06-22T10:08:51;22.00;99.90
23991;DHT22;12205;50.600;4.608;2023-06-22T10:11:18;21.90;99.90
23991;DHT22;12205;50.600;4.608;2023-06-22T10:13:45;21.90;99.90
23991;DHT22;12205;50.600;4.608;2023-06-22T10:16:12;21.80;99.90
23991;DHT22;12205;50.600;4.608;2023-06-22T10:18:39;21.70;99.90
23991;DHT22;12205;50.600;4.608;2023-06-22T10:21:08;21.60;99.90
23991;DHT22;12205;50.600;4.608;2023-06-22T10:23:35;21.50;99.90
23991;DHT22;12205;50.600;4.608;2023-06-22T10:26:02;21.50;99.90
23991;DHT22;12205;50.600;4.608;2023-06-22T10:28:29;21.40;99.90
23991;DHT22;12205;50.600;4.608;2023-06-22T10:30:56;21.30;99.90
23991;DHT22;12205;50.600;4.608;2023-06-22T10:33:23;21.30;99.90
23991;DHT22;12205;50.600;4.608;2023-06-22T10:35:50;21.30;99.90
23991;DHT22;12205;50.600;4.608;2023-06-22T10:38:18;21.30;99.90
23991;DHT22;12205;50.600;4.608;2023-06-22T10:40:45;21.40;99.90
23991;DHT22;12205;50.600;4.608;2023-06-22T10:43:13;21.40;99.90
23991;DHT22;12205;50.600;4.608;2023-06-22T10:45:40;21.40;99.90
23991;DHT22;12205;50.600;4.608;2023-06-22T10:48:07;21.40;99.90
23991;DHT22;12205;50.600;4.608;2023-06-22T10:50:34;21.40;99.90
23991;DHT22;12205;50.600;4.608;2023-06-22T10:53:01;21.40;99.90
23991;DHT22;12205;50.600;4.608;2023-06-22T10:55:29;21.30;99.90
23991;DHT22;12205;50.600;4.608;2023-06-22T10:57:57;21.40;99.90
23991;DHT22;12205;50.600;4.608;2023-06-22T11:00:24;21.30;99.90
23991;DHT22;12205;50.600;4.608;2023-06-22T11:02:51;21.30;99.90
23991;DHT22;12205;50.600;4.608;2023-06-22T11:05:18;21.20;99.90
23991;DHT22;12205;50.600;4.608;2023-06-22T11:07:45;21.20;99.90
23991;DHT22;12205;50.600;4.608;2023-06-22T11:10:14;21.10;99.90
23991;DHT22;12205;50.600;4.608;2023-06-22T11:12:42;21.00;99.90
23991;DHT22;12205;50.600;4.608;2023-06-22T11:15:10;20.80;99.90
23991;DHT22;12205;50.600;4.608;2023-06-22T11:17:37;20.70;99.90
23991;DHT22;12205;50.600;4.608;2023-06-22T11:20:05;20.70;99.90
23991;DHT22;12205;50.600;4.608;2023-06-22T11:22:36;20.70;99.90
23991;DHT22;12205;50.600;4.608;2023-06-22T11:25:05;20.70;99.90
23991;DHT22;12205;50.600;4.608;2023-06-22T11:27:33;20.60;99.90
23991;DHT22;12205;50.600;4.608;2023-06-22T11:30:02;20.50;99.90
23991;DHT22;12205;50.600;4.608;2023-06-22T11:32:30;20.60;99.90
23991;DHT22;12205;50.600;4.608;2023-06-22T11:34:57;20.50;99.90
23991;DHT22;12205;50.600;4.608;2023-06-22T11:37:24;20.50;99.90
23991;DHT22;12205;50.600;4.608;2023-06-22T11:39:51;20.50;99.90
23991;DHT22;12205;50.600;4.608;2023-06-22T11:42:20;20.40;99.90
23991;DHT22;12205;50.600;4.608;2023-06-22T11:44:49;20.40;99.90
23991;DHT22;12205;50.600;4.608;2023-06-22T11:47:17;20.30;99.90
23991;DHT22;12205;50.600;4.608;2023-06-22T11:49:44;20.20;99.90
23991;DHT22;12205;50.600;4.608;2023-06-22T11:52:11;20.20;99.90
23991;DHT22;12205;50.600;4.608;2023-06-22T11:54:39;20.20;99.90
23991;DHT22;12205;50.600;4.608;2023-06-22T11:57:06;20.20;99.90
23991;DHT22;12205;50.600;4.608;2023-06-22T11:59:33;20.10;99.90
23991;DHT22;12205;50.600;4.608;2023-06-22T12:02:00;20.00;99.90
23991;DHT22;12205;50.600;4.608;2023-06-22T12:04:29;20.00;99.90
23991;DHT22;12205;50.600;4.608;2023-06-22T12:06:56;20.00;99.90
23991;DHT22;12205;50.600;4.608;2023-06-22T12:09:24;20.00;99.90
23991;DHT22;12205;50.600;4.608;2023-06-22T12:11:51;20.00;99.90
23991;DHT22;12205;50.600;4.608;2023-06-22T12:14:18;19.90;99.90
23991;DHT22;12205;50.600;4.608;2023-06-22T12:16:45;19.90;99.90
23991;DHT22;12205;50.600;4.608;2023-06-22T12:19:12;19.90;99.90
23991;DHT22;12205;50.600;4.608;2023-06-22T12:21:40;19.80;99.90
23991;DHT22;12205;50.600;4.608;2023-06-22T12:24:11;19.80;99.90
23991;DHT22;12205;50.600;4.608;2023-06-22T12:26:38;19.80;99.90
23991;DHT22;12205;50.600;4.608;2023-06-22T12:29:05;19.70;99.90
23991;DHT22;12205;50.600;4.608;2023-06-22T12:31:32;19.70;99.90
23991;DHT22;12205;50.600;4.608;2023-06-22T12:33:59;19.70;99.90
23991;DHT22;12205;50.600;4.608;2023-06-22T12:36:26;19.60;99.90
23991;DHT22;12205;50.600;4.608;2023-06-22T12:38:55;19.60;99.90
23991;DHT22;12205;50.600;4.608;2023-06-22T12:41:22;19.60;99.90
23991;DHT22;12205;50.600;4.608;2023-06-22T12:43:49;19.50;99.90
23991;DHT22;12205;50.600;4.608;2023-06-22T12:46:16;19.40;99.90
23991;DHT22;12205;50.600;4.608;2023-06-22T12:48:43;19.40;99.90
23991;DHT22;12205;50.600;4.608;2023-06-22T12:51:11;19.40;99.90
23991;DHT22;12205;50.600;4.608;2023-06-22T12:53:38;19.30;99.90
23991;DHT22;12205;50.600;4.608;2023-06-22T12:56:07;19.30;99.90
23991;DHT22;12205;50.600;4.608;2023-06-22T12:58:34;19.30;99.90
23991;DHT22;12205;50.600;4.608;2023-06-22T13:01:01;19.30;99.90
23991;DHT22;12205;50.600;4.608;2023-06-22T13:03:28;19.30;99.90
23991;DHT22;12205;50.600;4.608;2023-06-22T13:05:55;19.20;99.90
23991;DHT22;12205;50.600;4.608;2023-06-22T13:08:22;19.20;99.90
23991;DHT22;12205;50.600;4.608;2023-06-22T13:10:49;19.30;99.90
23991;DHT22;12205;50.600;4.608;2023-06-22T13:13:18;19.30;99.90
23991;DHT22;12205;50.600;4.608;2023-06-22T13:15:45;19.30;99.90
23991;DHT22;12205;50.600;4.608;2023-06-22T13:18:12;19.30;99.90
23991;DHT22;12205;50.600;4.608;2023-06-22T13:20:39;19.30;99.90
23991;DHT22;12205;50.600;4.608;2023-06-22T13:23:06;19.30;99.90
23991;DHT22;12205;50.600;4.608;2023-06-22T13:25:33;19.40;99.90
23991;DHT22;12205;50.600;4.608;2023-06-22T13:28:01;19.40;99.90
23991;DHT22;12205;50.600;4.608;2023-06-22T13:30:29;19.40;99.90
23991;DHT22;12205;50.600;4.608;2023-06-22T13:32:57;19.40;99.90
23991;DHT22;12205;50.600;4.608;2023-06-22T13:35:24;19.40;99.90
23991;DHT22;12205;50.600;4.608;2023-06-22T13:37:51;19.40;99.90
23991;DHT22;12205;50.600;4.608;2023-06-22T13:40:18;19.40;99.90
23991;DHT22;12205;50.600;4.608;2023-06-22T13:42:46;19.30;99.90
23991;DHT22;12205;50.600;4.608;2023-06-22T13:45:13;19.40;99.90
23991;DHT22;12205;50.600;4.608;2023-06-22T13:47:43;19.40;99.90
23991;DHT22;12205;50.600;4.608;2023-06-22T13:50:10;19.40;99.90
23991;DHT22;12205;50.600;4.608;2023-06-22T13:52:38;19.50;99.90
23991;DHT22;12205;50.600;4.608;2023-06-22T13:55:06;19.40;99.90
23991;DHT22;12205;50.600;4.608;2023-06-22T13:57:33;19.40;99.90
23991;DHT22;12205;50.600;4.608;2023-06-22T14:00:00;19.40;99.90
23991;DHT22;12205;50.600;4.608;2023-06-22T14:02:37;19.30;99.90
23991;DHT22;12205;50.600;4.608;2023-06-22T14:05:07;19.30;99.90
23991;DHT22;12205;50.600;4.608;2023-06-22T14:07:35;19.30;99.90
23991;DHT22;12205;50.600;4.608;2023-06-22T14:10:03;19.30;99.90
23991;DHT22;12205;50.600;4.608;2023-06-22T14:12:31;19.30;99.90
23991;DHT22;12205;50.600;4.608;2023-06-22T14:14:58;19.30;99.90
23991;DHT22;12205;50.600;4.608;2023-06-22T14:17:26;19.30;99.90
23991;DHT22;12205;50.600;4.608;2023-06-22T14:19:53;19.20;99.90
23991;DHT22;12205;50.600;4.608;2023-06-22T14:22:22;19.30;99.90
23991;DHT22;12205;50.600;4.608;2023-06-22T14:24:49;19.30;99.90
23991;DHT22;12205;50.600;4.608;2023-06-22T14:27:16;19.20;99.90
23991;DHT22;12205;50.600;4.608;2023-06-22T14:29:43;19.20;99.90
23991;DHT22;12205;50.600;4.608;2023-06-22T14:32:10;19.30;99.90
23991;DHT22;12205;50.600;4.608;2023-06-22T14:34:37;19.30;99.90
23991;DHT22;12205;50.600;4.608;2023-06-22T14:37:06;19.30;99.90
23991;DHT22;12205;50.600;4.608;2023-06-22T14:39:36;19.30;99.90
23991;DHT22;12205;50.600;4.608;2023-06-22T14:42:04;19.30;99.90
23991;DHT22;12205;50.600;4.608;2023-06-22T14:44:31;19.30;99.90
23991;DHT22;12205;50.600;4.608;2023-06-22T14:46:58;19.30;99.90
23991;DHT22;12205;50.600;4.608;2023-06-22T14:49:26;19.30;99.90
23991;DHT22;12205;50.600;4.608;2023-06-22T14:51:53;19.30;99.90
23991;DHT22;12205;50.600;4.608;2023-06-22T14:54:21;19.40;99.90
23991;DHT22;12205;50.600;4.608;2023-06-22T14:56:49;19.40;99.90
23991;DHT22;12205;50.600;4.608;2023-06-22T14:59:17;19.40;99.90
23991;DHT22;12205;50.600;4.608;2023-06-22T15:01:44;19.40;99.90
23991;DHT22;12205;50.600;4.608;2023-06-22T15:04:11;19.40;99.90
23991;DHT22;12205;50.600;4.608;2023-06-22T15:06:38;19.40;99.90
23991;DHT22;12205;50.600;4.608;2023-06-22T15:09:06;19.40;99.90
23991;DHT22;12205;50.600;4.608;2023-06-22T15:11:33;19.30;99.90
23991;DHT22;12205;50.600;4.608;2023-06-22T15:14:01;19.30;99.90
23991;DHT22;12205;50.600;4.608;2023-06-22T15:16:28;19.30;99.90
23991;DHT22;12205;50.600;4.608;2023-06-22T15:18:55;19.30;99.90
23991;DHT22;12205;50.600;4.608;2023-06-22T15:21:22;19.30;99.90
23991;DHT22;12205;50.600;4.608;2023-06-22T15:23:50;19.30;99.90
23991;DHT22;12205;50.600;4.608;2023-06-22T15:26:18;19.30;99.90
23991;DHT22;12205;50.600;4.608;2023-06-22T15:28:45;19.30;99.90
23991;DHT22;12205;50.600;4.608;2023-06-22T15:31:13;19.20;99.90
23991;DHT22;12205;50.600;4.608;2023-06-22T15:33:40;19.30;99.90
23991;DHT22;12205;50.600;4.608;2023-06-22T15:36:07;19.30;99.90